createdAt,value
2023-01-13T00:00:48.144Z,9.30
2023-01-13T00:01:48.118Z,9.28
2023-01-13T00:02:48.070Z,9.30
2023-01-13T00:03:48.052Z,9.20
2023-01-13T00:04:48.050Z,9.27
2023-01-13T00:05:48.038Z,9.30
2023-01-13T00:06:48.051Z,9.39
2023-01-13T00:07:48.364Z,9.39
2023-01-13T00:08:48.088Z,9.28
2023-01-13T00:09:48.078Z,9.35
2023-01-13T00:10:48.016Z,9.32
2023-01-13T00:11:48.056Z,9.28
2023-01-13T00:12:49.054Z,9.31
2023-01-13T00:13:48.072Z,9.25
2023-01-13T00:14:48.062Z,9.25
2023-01-13T00:15:48.086Z,9.20
2023-01-13T00:16:49.066Z,9.27
2023-01-13T00:17:48.071Z,9.31
2023-01-13T00:18:48.073Z,9.24
2023-01-13T00:19:48.063Z,9.23
2023-01-13T00:20:48.009Z,9.30
2023-01-13T00:21:48.032Z,9.30
2023-01-13T00:22:48.024Z,9.34
2023-01-13T00:23:48.018Z,9.34
2023-01-13T00:24:48.012Z,9.32
2023-01-13T00:25:47.985Z,9.28
2023-01-13T00:26:47.976Z,9.31
2023-01-13T00:27:47.948Z,9.32
2023-01-13T00:28:49.049Z,9.32
2023-01-13T00:29:47.947Z,9.31
2023-01-13T00:30:47.945Z,9.34
2023-01-13T00:31:47.934Z,9.25
2023-01-13T00:32:47.934Z,9.35
2023-01-13T00:33:47.979Z,9.38
2023-01-13T00:34:47.913Z,9.35
2023-01-13T00:35:47.901Z,9.30
2023-01-13T00:36:47.895Z,9.34
2023-01-13T00:37:47.869Z,9.32
2023-01-13T00:38:47.970Z,9.31
2023-01-13T00:39:47.916Z,9.32
2023-01-13T00:40:47.885Z,9.32
2023-01-13T00:41:47.848Z,9.28
2023-01-13T00:42:47.750Z,9.35
2023-01-13T00:43:47.821Z,9.39
2023-01-13T00:44:47.944Z,9.34
2023-01-13T00:45:47.843Z,9.38
2023-01-13T00:46:47.876Z,9.35
2023-01-13T00:47:47.787Z,9.25
2023-01-13T00:48:47.793Z,9.40
2023-01-13T00:49:47.775Z,9.35
2023-01-13T00:50:47.816Z,9.38
2023-01-13T00:51:47.783Z,9.31
2023-01-13T00:52:47.758Z,9.27
2023-01-13T00:53:47.774Z,9.40
2023-01-13T00:54:47.759Z,9.32
2023-01-13T00:55:47.795Z,9.34
2023-01-13T00:56:47.741Z,9.35
2023-01-13T00:57:47.730Z,9.35
2023-01-13T00:58:47.735Z,9.38
2023-01-13T00:59:49.519Z,9.39
2023-01-13T01:00:48.753Z,9.35
2023-01-13T01:01:47.844Z,9.24
2023-01-13T01:02:47.688Z,9.34
2023-01-13T01:03:47.604Z,9.32
2023-01-13T01:04:47.622Z,9.32
2023-01-13T01:05:47.597Z,9.31
2023-01-13T01:06:47.615Z,9.46
2023-01-13T01:07:47.582Z,9.38
2023-01-13T01:08:47.586Z,9.40
2023-01-13T01:09:47.541Z,9.31
2023-01-13T01:10:47.540Z,9.38
2023-01-13T01:11:48.621Z,9.30
2023-01-13T01:12:47.561Z,9.43
2023-01-13T01:13:47.538Z,9.32
2023-01-13T01:14:47.551Z,9.32
2023-01-13T01:15:47.665Z,9.30
2023-01-13T01:16:47.616Z,9.30
2023-01-13T01:17:47.598Z,9.30
2023-01-13T01:18:47.575Z,9.38
2023-01-13T01:19:47.581Z,9.38
2023-01-13T01:20:47.576Z,9.28
2023-01-13T01:21:47.548Z,9.38
2023-01-13T01:22:47.644Z,9.28
2023-01-13T01:23:47.552Z,9.35
2023-01-13T01:24:47.552Z,9.32
2023-01-13T01:25:47.525Z,9.39
2023-01-13T01:26:47.562Z,9.34
2023-01-13T01:27:47.543Z,9.35
2023-01-13T01:28:47.598Z,9.38
2023-01-13T01:29:47.492Z,9.35
2023-01-13T01:30:47.494Z,9.48
2023-01-13T01:31:47.515Z,9.31
2023-01-13T01:32:47.491Z,9.40
2023-01-13T01:33:47.554Z,9.39
2023-01-13T01:34:47.464Z,9.40
2023-01-13T01:35:47.453Z,9.43
2023-01-13T01:36:47.452Z,9.42
2023-01-13T01:37:47.420Z,9.45
2023-01-13T01:38:47.502Z,9.38
2023-01-13T01:39:47.426Z,9.42
2023-01-13T01:40:47.416Z,9.40
2023-01-13T01:41:47.428Z,9.40
2023-01-13T01:42:47.403Z,9.46
2023-01-13T01:43:47.405Z,9.48
2023-01-13T01:44:49.308Z,9.46
2023-01-13T01:45:47.367Z,9.45
2023-01-13T01:46:47.366Z,9.42
2023-01-13T01:47:47.311Z,9.48
2023-01-13T01:48:47.280Z,9.53
2023-01-13T01:49:47.327Z,9.46
2023-01-13T01:50:47.258Z,9.50
2023-01-13T01:51:47.280Z,9.49
2023-01-13T01:52:47.255Z,9.53
2023-01-13T01:53:47.324Z,9.56
2023-01-13T01:54:47.353Z,9.56
2023-01-13T01:55:47.302Z,9.49
2023-01-13T01:56:47.323Z,9.53
2023-01-13T01:57:47.312Z,9.53
2023-01-13T01:58:47.328Z,9.52
2023-01-13T01:59:47.296Z,9.53
2023-01-13T02:00:47.342Z,9.53
2023-01-13T02:01:47.329Z,9.58
2023-01-13T02:02:47.315Z,9.61
2023-01-13T02:03:47.265Z,9.56
2023-01-13T02:04:47.248Z,9.56
2023-01-13T02:05:47.329Z,9.50
2023-01-13T02:06:47.221Z,9.50
2023-01-13T02:07:47.235Z,9.52
2023-01-13T02:08:47.282Z,9.56
2023-01-13T02:09:47.223Z,9.56
2023-01-13T02:10:47.249Z,9.61
2023-01-13T02:11:47.241Z,9.53
2023-01-13T02:12:47.178Z,9.58
2023-01-13T02:13:47.169Z,9.61
2023-01-13T02:14:47.186Z,9.57
2023-01-13T02:15:47.160Z,9.48
2023-01-13T02:16:47.215Z,9.52
2023-01-13T02:17:47.102Z,9.45
2023-01-13T02:18:47.060Z,9.63
2023-01-13T02:19:48.139Z,9.53
2023-01-13T02:20:47.062Z,9.60
2023-01-13T02:21:47.083Z,9.57
2023-01-13T02:22:47.064Z,9.58
2023-01-13T02:23:47.044Z,9.53
2023-01-13T02:24:47.013Z,9.70
2023-01-13T02:25:47.021Z,9.61
2023-01-13T02:26:47.019Z,9.64
2023-01-13T02:27:47.020Z,9.64
2023-01-13T02:28:46.985Z,9.64
2023-01-13T02:29:46.997Z,9.64
2023-01-13T02:30:47.087Z,9.63
2023-01-13T02:31:46.992Z,9.53
2023-01-13T02:32:46.973Z,9.60
2023-01-13T02:33:47.025Z,9.53
2023-01-13T02:34:46.945Z,9.60
2023-01-13T02:35:46.986Z,9.53
2023-01-13T02:36:47.052Z,9.53
2023-01-13T02:37:47.012Z,9.43
2023-01-13T02:38:47.094Z,9.52
2023-01-13T02:39:46.980Z,9.53
2023-01-13T02:40:46.975Z,9.53
2023-01-13T02:41:46.972Z,9.49
2023-01-13T02:42:46.984Z,9.57
2023-01-13T02:43:46.947Z,9.56
2023-01-13T02:44:47.049Z,9.56
2023-01-13T02:45:47.026Z,9.53
2023-01-13T02:46:46.989Z,9.60
2023-01-13T02:47:46.964Z,9.58
2023-01-13T02:48:46.960Z,9.66
2023-01-13T02:49:46.944Z,9.56
2023-01-13T02:50:46.951Z,9.61
2023-01-13T02:51:46.940Z,9.63
2023-01-13T02:52:46.936Z,9.58
2023-01-13T02:53:46.919Z,9.49
2023-01-13T02:54:46.921Z,9.57
2023-01-13T02:55:46.920Z,9.60
2023-01-13T02:56:46.946Z,9.53
2023-01-13T02:57:46.871Z,9.56
2023-01-13T02:58:46.860Z,9.61
2023-01-13T02:59:46.937Z,9.60
2023-01-13T03:00:46.956Z,9.63
2023-01-13T03:01:46.978Z,9.50
2023-01-13T03:02:46.903Z,9.60
2023-01-13T03:03:46.845Z,9.64
2023-01-13T03:04:46.848Z,9.63
2023-01-13T03:05:46.824Z,9.61
2023-01-13T03:06:46.805Z,9.67
2023-01-13T03:07:46.745Z,9.67
2023-01-13T03:08:46.764Z,9.63
2023-01-13T03:09:46.729Z,9.67
2023-01-13T03:10:46.771Z,9.66
2023-01-13T03:11:46.752Z,9.60
2023-01-13T03:12:46.683Z,9.71
2023-01-13T03:13:46.730Z,9.63
2023-01-13T03:14:46.705Z,9.60
2023-01-13T03:15:46.694Z,9.58
2023-01-13T03:16:46.704Z,9.68
2023-01-13T03:17:47.124Z,9.64
2023-01-13T03:18:46.663Z,9.63
2023-01-13T03:19:46.805Z,9.61
2023-01-13T03:20:46.731Z,9.60
2023-01-13T03:21:46.739Z,9.60
2023-01-13T03:22:46.785Z,9.64
2023-01-13T03:23:46.692Z,9.66
2023-01-13T03:24:46.709Z,9.64
2023-01-13T03:25:46.716Z,9.63
2023-01-13T03:26:46.682Z,9.71
2023-01-13T03:27:46.668Z,9.78
2023-01-13T03:28:46.734Z,9.71
2023-01-13T03:29:46.669Z,9.66
2023-01-13T03:30:46.697Z,9.67
2023-01-13T03:31:46.681Z,9.67
2023-01-13T03:32:46.645Z,9.68
2023-01-13T03:33:46.709Z,9.66
2023-01-13T03:34:46.668Z,9.61
2023-01-13T03:35:46.663Z,9.68
2023-01-13T03:36:46.656Z,9.73
2023-01-13T03:37:46.593Z,9.67
2023-01-13T03:38:46.649Z,9.71
2023-01-13T03:39:47.661Z,9.76
2023-01-13T03:40:46.658Z,9.67
2023-01-13T03:41:46.598Z,9.64
2023-01-13T03:42:46.585Z,9.43
2023-01-13T03:43:46.588Z,9.31
2023-01-13T03:44:46.592Z,9.27
2023-01-13T03:45:46.583Z,9.25
2023-01-13T03:46:46.589Z,9.25
2023-01-13T03:47:46.593Z,9.27
2023-01-13T03:48:46.537Z,9.27
2023-01-13T03:49:46.535Z,9.32
2023-01-13T03:50:46.582Z,9.43
2023-01-13T03:51:46.547Z,9.56
2023-01-13T03:52:46.559Z,9.56
2023-01-13T03:53:46.531Z,9.58
2023-01-13T03:54:46.512Z,9.56
2023-01-13T03:55:46.605Z,9.56
2023-01-13T03:56:46.501Z,9.53
2023-01-13T03:57:46.523Z,9.50
2023-01-13T03:58:46.456Z,9.43
2023-01-13T03:59:46.477Z,9.42
2023-01-13T04:00:46.455Z,9.30
2023-01-13T04:01:46.546Z,9.25
2023-01-13T04:02:46.369Z,9.18
2023-01-13T04:03:46.377Z,9.16
2023-01-13T04:04:46.335Z,9.12
2023-01-13T04:05:46.323Z,9.09
2023-01-13T04:06:46.397Z,9.12
2023-01-13T04:07:46.290Z,9.09
2023-01-13T04:08:46.297Z,9.09
2023-01-13T04:09:46.324Z,9.10
2023-01-13T04:10:46.287Z,9.06
2023-01-13T04:11:46.309Z,9.04
2023-01-13T04:12:46.324Z,9.01
2023-01-13T04:13:46.284Z,9.15
2023-01-13T04:14:46.246Z,9.09
2023-01-13T04:15:46.287Z,9.04
2023-01-13T04:16:46.325Z,9.10
2023-01-13T04:17:46.411Z,8.99
2023-01-13T04:18:46.353Z,9.01
2023-01-13T04:19:46.306Z,8.99
2023-01-13T04:20:46.332Z,8.83
2023-01-13T04:21:46.307Z,8.90
2023-01-13T04:22:46.353Z,8.86
2023-01-13T04:23:46.337Z,8.90
2023-01-13T04:24:46.323Z,8.87
2023-01-13T04:25:46.269Z,8.79
2023-01-13T04:26:46.159Z,8.81
2023-01-13T04:27:46.235Z,8.79
2023-01-13T04:28:46.298Z,8.73
2023-01-13T04:29:46.236Z,8.72
2023-01-13T04:30:46.345Z,8.71
2023-01-13T04:31:46.234Z,8.76
2023-01-13T04:32:46.220Z,8.68
2023-01-13T04:33:46.222Z,8.76
2023-01-13T04:34:46.252Z,8.76
2023-01-13T04:35:46.203Z,8.71
2023-01-13T04:36:46.211Z,8.66
2023-01-13T04:37:46.192Z,8.75
2023-01-13T04:38:46.177Z,8.65
2023-01-13T04:39:46.185Z,8.55
2023-01-13T04:40:46.187Z,8.54
2023-01-13T04:41:46.199Z,8.51
2023-01-13T04:42:46.188Z,8.45
2023-01-13T04:43:46.211Z,8.47
2023-01-13T04:44:46.133Z,8.45
2023-01-13T04:45:46.211Z,8.42
2023-01-13T04:46:46.100Z,8.37
2023-01-13T04:47:46.107Z,8.25
2023-01-13T04:48:46.092Z,8.22
2023-01-13T04:49:46.092Z,8.22
2023-01-13T04:50:46.134Z,8.26
2023-01-13T04:51:46.079Z,8.25
2023-01-13T04:52:46.107Z,8.28
2023-01-13T04:53:46.037Z,8.32
2023-01-13T04:54:46.048Z,8.30
2023-01-13T04:55:46.055Z,8.26
2023-01-13T04:56:46.115Z,8.35
2023-01-13T04:57:46.050Z,8.33
2023-01-13T04:58:46.040Z,8.40
2023-01-13T04:59:46.028Z,8.28
2023-01-13T05:00:46.086Z,8.28
2023-01-13T05:01:46.247Z,8.22
2023-01-13T05:02:46.039Z,8.22
2023-01-13T05:03:45.985Z,8.15
2023-01-13T05:04:46.145Z,8.18
2023-01-13T05:05:45.984Z,8.20
2023-01-13T05:06:46.018Z,8.30
2023-01-13T05:07:46.031Z,8.12
2023-01-13T05:08:46.038Z,8.11
2023-01-13T05:09:45.986Z,8.10
2023-01-13T05:10:46.296Z,8.14
2023-01-13T05:11:45.877Z,8.22
2023-01-13T05:12:45.876Z,8.11
2023-01-13T05:13:45.867Z,8.17
2023-01-13T05:14:45.886Z,8.18
2023-01-13T05:15:45.884Z,8.22
2023-01-13T05:16:45.792Z,8.03
2023-01-13T05:17:45.842Z,8.04
2023-01-13T05:18:46.125Z,8.21
2023-01-13T05:19:45.899Z,8.08
2023-01-13T05:20:45.851Z,8.14
2023-01-13T05:21:46.796Z,8.18
2023-01-13T05:22:45.846Z,8.14
2023-01-13T05:23:45.889Z,8.12
2023-01-13T05:24:45.853Z,8.10
2023-01-13T05:25:45.755Z,8.03
2023-01-13T05:26:45.828Z,7.92
2023-01-13T05:27:45.923Z,7.96
2023-01-13T05:28:45.885Z,7.75
2023-01-13T05:29:45.931Z,7.84
2023-01-13T05:30:45.815Z,7.84
2023-01-13T05:31:45.877Z,7.82
2023-01-13T05:32:45.815Z,7.77
2023-01-13T05:33:45.883Z,7.74
2023-01-13T05:34:45.821Z,7.69
2023-01-13T05:35:45.803Z,7.72
2023-01-13T05:36:45.785Z,7.78
2023-01-13T05:37:45.770Z,7.71
2023-01-13T05:38:45.783Z,7.67
2023-01-13T05:39:45.805Z,7.59
2023-01-13T05:40:45.804Z,7.60
2023-01-13T05:41:45.734Z,7.60
2023-01-13T05:42:45.738Z,7.63
2023-01-13T05:43:45.755Z,7.71
2023-01-13T05:44:45.725Z,7.67
2023-01-13T05:45:45.735Z,7.77
2023-01-13T05:46:45.747Z,7.74
2023-01-13T05:47:45.611Z,7.71
2023-01-13T05:48:45.649Z,7.74
2023-01-13T05:49:45.619Z,7.75
2023-01-13T05:50:45.567Z,7.85
2023-01-13T05:51:45.630Z,7.69
2023-01-13T05:52:45.570Z,7.71
2023-01-13T05:53:45.579Z,7.66
2023-01-13T05:54:45.567Z,7.58
2023-01-13T05:55:45.569Z,7.50
2023-01-13T05:56:45.586Z,7.55
2023-01-13T05:57:45.571Z,7.56
2023-01-13T05:58:45.587Z,7.50
2023-01-13T05:59:45.531Z,7.45
2023-01-13T06:00:45.541Z,7.56
2023-01-13T06:01:45.501Z,7.53
2023-01-13T06:02:45.634Z,7.53
2023-01-13T06:03:45.501Z,7.58
2023-01-13T06:04:45.529Z,7.58
2023-01-13T06:05:45.544Z,7.60
2023-01-13T06:06:45.552Z,7.49
2023-01-13T06:07:45.639Z,7.60
2023-01-13T06:08:45.600Z,7.45
2023-01-13T06:09:45.539Z,7.62
2023-01-13T06:10:45.445Z,7.53
2023-01-13T06:11:45.556Z,7.59
2023-01-13T06:12:45.557Z,7.59
2023-01-13T06:13:45.574Z,7.56
2023-01-13T06:14:45.530Z,7.62
2023-01-13T06:15:45.598Z,7.60
2023-01-13T06:16:45.501Z,7.58
2023-01-13T06:17:45.590Z,7.60
2023-01-13T06:18:45.730Z,7.63
2023-01-13T06:19:45.580Z,7.63
2023-01-13T06:21:52.087Z,7.72
2023-01-13T06:22:53.367Z,7.66
2023-01-13T06:23:53.372Z,7.62
2023-01-13T06:24:53.254Z,7.69
2023-01-13T06:25:53.330Z,7.56
2023-01-13T06:26:53.396Z,7.63
2023-01-13T06:27:53.318Z,7.77
2023-01-13T06:28:53.325Z,7.63
2023-01-13T06:29:53.253Z,7.62
2023-01-13T06:30:53.260Z,7.60
2023-01-13T06:31:53.310Z,7.75
2023-01-13T06:32:53.249Z,7.63
2023-01-13T06:33:53.290Z,7.69
2023-01-13T06:34:53.281Z,7.69
2023-01-13T06:35:53.268Z,7.67
2023-01-13T06:36:53.247Z,7.66
2023-01-13T06:37:53.227Z,7.60
2023-01-13T06:38:53.239Z,7.52
2023-01-13T06:39:53.275Z,7.55
2023-01-13T06:40:53.196Z,7.58
2023-01-13T06:41:53.183Z,7.50
2023-01-13T06:42:53.228Z,7.41
2023-01-13T06:43:53.236Z,7.56
2023-01-13T06:44:53.192Z,7.41
2023-01-13T06:45:53.284Z,7.41
2023-01-13T06:46:53.247Z,7.45
2023-01-13T06:47:53.229Z,7.44
2023-01-13T06:48:53.138Z,7.24
2023-01-13T06:49:53.146Z,7.32
2023-01-13T06:50:53.162Z,7.37
2023-01-13T06:51:53.137Z,7.26
2023-01-13T06:52:53.148Z,7.09
2023-01-13T06:53:53.117Z,7.17
2023-01-13T06:54:53.144Z,7.05
2023-01-13T06:55:53.014Z,7.09
2023-01-13T06:56:53.094Z,6.89
2023-01-13T06:57:53.009Z,6.87
2023-01-13T06:58:52.976Z,6.83
2023-01-13T06:59:52.996Z,6.80
2023-01-13T07:00:53.093Z,6.72
2023-01-13T07:01:53.161Z,6.80
2023-01-13T07:02:53.035Z,6.84
2023-01-13T07:03:52.979Z,6.72
2023-01-13T07:04:52.938Z,6.66
2023-01-13T07:05:52.958Z,6.68
2023-01-13T07:06:52.928Z,6.69
2023-01-13T07:07:53.090Z,6.76
2023-01-13T07:08:52.950Z,6.65
2023-01-13T07:09:52.926Z,6.53
2023-01-13T07:10:52.939Z,6.62
2023-01-13T07:12:25.167Z,6.44
2023-01-13T07:13:24.891Z,6.46
2023-01-13T07:13:52.965Z,6.61
2023-01-13T07:14:52.959Z,6.50
2023-01-13T07:15:53.021Z,6.65
2023-01-13T07:16:52.962Z,6.61
2023-01-13T07:17:52.949Z,6.76
2023-01-13T07:18:53.176Z,6.72
2023-01-13T07:19:53.004Z,6.77
2023-01-13T07:20:52.927Z,6.77
2023-01-13T07:21:52.933Z,6.79
2023-01-13T07:22:52.924Z,6.90
2023-01-13T07:23:52.964Z,6.91
2023-01-13T07:24:52.911Z,6.94
2023-01-13T07:25:52.890Z,6.86
2023-01-13T07:26:52.886Z,6.83
2023-01-13T07:27:53.900Z,6.97
2023-01-13T07:28:52.868Z,7.04
2023-01-13T07:29:52.958Z,6.95
2023-01-13T07:30:52.956Z,6.98
2023-01-13T07:31:52.991Z,6.95
2023-01-13T07:32:52.822Z,6.87
2023-01-13T07:33:52.932Z,6.91
2023-01-13T07:34:52.877Z,6.95
2023-01-13T07:35:52.826Z,6.76
2023-01-13T07:36:52.817Z,6.69
2023-01-13T07:37:52.798Z,6.79
2023-01-13T07:38:54.848Z,6.71
2023-01-13T07:39:53.817Z,6.76
2023-01-13T07:40:52.697Z,6.72
2023-01-13T07:41:52.710Z,6.72
2023-01-13T07:42:52.669Z,6.62
2023-01-13T07:43:53.697Z,6.71
2023-01-13T07:44:52.693Z,6.58
2023-01-13T07:45:52.713Z,6.59
2023-01-13T07:46:52.633Z,6.50
2023-01-13T07:47:52.784Z,6.51
2023-01-13T07:48:52.726Z,6.43
2023-01-13T07:49:52.745Z,6.58
2023-01-13T07:50:52.815Z,6.53
2023-01-13T07:51:52.737Z,6.58
2023-01-13T07:52:52.735Z,6.48
2023-01-13T07:53:52.721Z,6.43
2023-01-13T07:54:52.787Z,6.58
2023-01-13T07:55:52.686Z,6.61
2023-01-13T07:56:52.806Z,6.53
2023-01-13T07:57:52.668Z,6.58
2023-01-13T07:58:52.723Z,6.58
2023-01-13T07:59:52.709Z,6.44
2023-01-13T08:00:52.797Z,6.44
2023-01-13T08:01:52.896Z,6.43
2023-01-13T08:02:52.736Z,6.50
2023-01-13T08:03:52.660Z,6.50
2023-01-13T08:04:52.733Z,6.54
2023-01-13T08:05:52.679Z,6.56
2023-01-13T08:06:52.649Z,6.65
2023-01-13T08:07:52.611Z,6.65
2023-01-13T08:08:52.616Z,6.71
2023-01-13T08:09:52.570Z,6.65
2023-01-13T08:10:52.555Z,6.71
2023-01-13T08:11:52.598Z,6.69
2023-01-13T08:12:57.014Z,6.63
2023-01-13T08:13:52.640Z,6.76
2023-01-13T08:14:52.560Z,6.66
2023-01-13T08:15:52.616Z,6.71
2023-01-13T08:16:52.622Z,6.69
2023-01-13T08:17:52.691Z,6.72
2023-01-13T08:18:52.562Z,6.79
2023-01-13T08:19:52.641Z,6.80
2023-01-13T08:20:52.642Z,6.86
2023-01-13T08:21:52.478Z,6.86
2023-01-13T08:22:52.533Z,6.86
2023-01-13T08:23:52.773Z,6.89
2023-01-13T08:24:52.627Z,7.02
2023-01-13T08:25:52.490Z,7.08
2023-01-13T08:26:52.473Z,7.07
2023-01-13T08:27:52.491Z,7.01
2023-01-13T08:28:52.505Z,7.15
2023-01-13T08:29:52.478Z,7.07
2023-01-13T08:30:52.486Z,7.12
2023-01-13T08:31:52.488Z,7.17
2023-01-13T08:32:52.668Z,7.22
2023-01-13T08:33:52.405Z,7.31
2023-01-13T08:34:52.485Z,7.32
2023-01-13T08:35:52.410Z,7.37
2023-01-13T08:36:52.541Z,7.35
2023-01-13T08:37:52.437Z,7.22
2023-01-13T08:38:52.445Z,7.27
2023-01-13T08:39:52.475Z,7.34
2023-01-13T08:40:52.529Z,7.24
2023-01-13T08:41:52.402Z,7.32
2023-01-13T08:42:52.506Z,7.37
2023-01-13T08:43:52.420Z,7.38
2023-01-13T08:44:52.367Z,7.35
2023-01-13T08:45:52.337Z,7.44
2023-01-13T08:46:52.283Z,7.45
2023-01-13T08:47:52.237Z,7.52
2023-01-13T08:48:52.275Z,7.52
2023-01-13T08:49:52.241Z,7.56
2023-01-13T08:50:52.274Z,7.56
2023-01-13T08:51:52.218Z,7.52
2023-01-13T08:52:52.213Z,7.52
2023-01-13T08:53:52.211Z,7.53
2023-01-13T08:54:52.218Z,7.71
2023-01-13T08:55:52.237Z,7.67
2023-01-13T08:56:52.447Z,7.58
2023-01-13T08:57:54.447Z,7.72
2023-01-13T08:58:52.305Z,7.69
2023-01-13T08:59:52.175Z,7.75
2023-01-13T09:00:52.330Z,7.79
2023-01-13T09:01:52.323Z,7.77
2023-01-13T09:02:52.222Z,7.79
2023-01-13T09:03:52.399Z,7.92
2023-01-13T09:04:52.273Z,7.84
2023-01-13T09:05:52.314Z,7.93
2023-01-13T09:06:52.293Z,7.96
2023-01-13T09:07:52.231Z,7.94
2023-01-13T09:08:52.272Z,7.93
2023-01-13T09:09:52.229Z,8.08
2023-01-13T09:10:52.092Z,8.12
2023-01-13T09:11:52.194Z,8.04
2023-01-13T09:12:52.258Z,8.14
2023-01-13T09:13:52.152Z,8.08
2023-01-13T09:14:52.138Z,8.17
2023-01-13T09:15:52.172Z,8.26
2023-01-13T09:16:52.182Z,8.29
2023-01-13T09:17:52.184Z,8.22
2023-01-13T09:18:52.162Z,8.40
2023-01-13T09:19:52.125Z,8.44
2023-01-13T09:20:52.142Z,8.35
2023-01-13T09:21:52.145Z,8.39
2023-01-13T09:22:52.151Z,8.36
2023-01-13T09:23:53.145Z,8.42
2023-01-13T09:24:52.117Z,8.35
2023-01-13T09:25:52.091Z,8.36
2023-01-13T09:26:52.125Z,8.37
2023-01-13T09:27:52.064Z,8.33
2023-01-13T09:28:52.184Z,8.37
2023-01-13T09:29:52.042Z,8.39
2023-01-13T09:30:52.186Z,8.30
2023-01-13T09:31:52.092Z,8.33
2023-01-13T09:32:52.020Z,8.30
2023-01-13T09:33:52.134Z,8.37
2023-01-13T09:34:52.173Z,8.33
2023-01-13T09:35:52.020Z,8.48
2023-01-13T09:36:52.002Z,8.45
2023-01-13T09:37:51.993Z,8.47
2023-01-13T09:38:51.991Z,8.48
2023-01-13T09:39:52.015Z,8.60
2023-01-13T09:40:52.040Z,8.50
2023-01-13T09:41:52.013Z,8.58
2023-01-13T09:42:51.962Z,8.60
2023-01-13T09:43:52.011Z,8.58
2023-01-13T09:44:51.938Z,8.55
2023-01-13T09:45:52.036Z,8.62
2023-01-13T09:46:51.934Z,8.60
2023-01-13T09:47:51.971Z,8.69
2023-01-13T09:48:52.317Z,8.69
2023-01-13T09:49:51.937Z,8.69
2023-01-13T09:50:51.944Z,8.76
2023-01-13T09:51:51.894Z,8.75
2023-01-13T09:52:51.892Z,8.83
2023-01-13T09:53:51.906Z,8.99
2023-01-13T09:55:09.066Z,8.84
2023-01-13T09:55:52.823Z,8.88
2023-01-13T09:56:51.833Z,8.81
2023-01-13T09:57:51.854Z,8.88
2023-01-13T09:58:51.764Z,8.93
2023-01-13T09:59:51.776Z,8.99
2023-01-13T10:00:51.755Z,9.05
2023-01-13T10:01:51.768Z,9.05
2023-01-13T10:02:51.716Z,9.02
2023-01-13T10:03:51.773Z,8.97
2023-01-13T10:04:51.730Z,8.94
2023-01-13T10:05:51.725Z,8.94
2023-01-13T10:06:51.747Z,8.81
2023-01-13T10:07:51.700Z,8.83
2023-01-13T10:08:51.712Z,8.88
2023-01-13T10:09:51.657Z,8.83
2023-01-13T10:10:51.670Z,8.75
2023-01-13T10:11:51.717Z,8.78
2023-01-13T10:12:51.721Z,8.71
2023-01-13T10:13:51.671Z,8.69
2023-01-13T10:14:51.747Z,8.62
2023-01-13T10:15:51.749Z,8.58
2023-01-13T10:16:51.741Z,8.69
2023-01-13T10:17:51.753Z,8.62
2023-01-13T10:18:51.693Z,8.51
2023-01-13T10:19:51.701Z,8.51
2023-01-13T10:20:51.723Z,8.60
2023-01-13T10:21:51.699Z,8.54
2023-01-13T10:22:51.667Z,8.65
2023-01-13T10:23:51.722Z,8.58
2023-01-13T10:24:51.684Z,8.65
2023-01-13T10:25:51.769Z,8.51
2023-01-13T10:26:51.638Z,8.69
2023-01-13T10:27:51.781Z,8.58
2023-01-13T10:28:51.943Z,8.57
2023-01-13T10:29:51.652Z,8.65
2023-01-13T10:30:51.672Z,8.71
2023-01-13T10:31:51.686Z,8.69
2023-01-13T10:32:51.592Z,8.65
2023-01-13T10:33:51.647Z,8.72
2023-01-13T10:34:51.659Z,8.76
2023-01-13T10:35:51.678Z,8.68
2023-01-13T10:36:51.585Z,8.73
2023-01-13T10:37:51.614Z,8.72
2023-01-13T10:38:51.608Z,8.75
2023-01-13T10:42:43.412Z,8.93
2023-01-13T10:43:44.683Z,8.90
2023-01-13T10:45:16.968Z,8.88
2023-01-13T10:48:47.475Z,9.01
2023-01-13T10:52:08.026Z,9.06
2023-01-13T10:53:09.051Z,9.13
2023-01-13T10:54:08.997Z,8.90
2023-01-13T10:55:08.955Z,9.06
2023-01-13T10:56:08.976Z,9.05
2023-01-13T10:59:38.985Z,8.99
2023-01-13T11:00:40.411Z,9.06
2023-01-13T11:01:40.269Z,9.15
2023-01-13T11:06:04.904Z,9.01
2023-01-13T11:07:06.231Z,8.91
2023-01-13T11:08:06.153Z,9.02
2023-01-13T11:09:06.270Z,9.10
2023-01-13T11:10:06.142Z,9.12
2023-01-13T11:11:06.240Z,9.04
2023-01-13T11:12:06.145Z,9.20
2023-01-13T11:13:06.205Z,9.18
2023-01-13T11:14:08.491Z,9.30
2023-01-13T11:15:06.140Z,9.28
2023-01-13T11:16:06.189Z,9.31
2023-01-13T11:17:06.161Z,9.25
2023-01-13T11:18:06.103Z,9.31
2023-01-13T11:19:06.119Z,9.18
2023-01-13T11:20:06.113Z,9.21
2023-01-13T11:21:06.090Z,9.20
2023-01-13T11:22:06.088Z,9.30
2023-01-13T11:23:06.550Z,9.28
2023-01-13T11:24:06.033Z,9.27
2023-01-13T11:25:06.052Z,9.23
2023-01-13T11:26:06.030Z,9.24
2023-01-13T11:27:06.051Z,9.23
2023-01-13T11:28:06.048Z,9.27
2023-01-13T11:29:06.004Z,9.23
2023-01-13T11:32:03.160Z,9.34
2023-01-13T11:33:04.667Z,9.21
2023-01-13T11:34:04.446Z,9.34
2023-01-13T11:35:04.444Z,9.35
2023-01-13T11:36:04.432Z,9.32
2023-01-13T11:37:04.400Z,9.38
2023-01-13T11:38:04.630Z,9.42
2023-01-13T11:39:04.429Z,9.25
2023-01-13T11:40:04.444Z,9.35
2023-01-13T11:41:04.412Z,9.23
2023-01-13T11:42:04.301Z,9.24
2023-01-13T11:43:04.316Z,9.30
2023-01-13T11:44:04.306Z,9.35
2023-01-13T11:45:04.281Z,9.39
2023-01-13T11:46:04.302Z,9.48
2023-01-13T11:47:04.296Z,9.40
2023-01-13T11:48:04.246Z,9.40
2023-01-13T11:49:04.264Z,9.34
2023-01-13T11:50:04.299Z,9.46
2023-01-13T11:51:04.235Z,9.35
2023-01-13T11:52:36.269Z,9.43
2023-01-13T11:53:04.205Z,9.52
2023-01-13T11:54:04.271Z,9.57
2023-01-13T11:55:04.247Z,9.53
2023-01-13T11:56:04.203Z,9.68
2023-01-13T11:57:05.156Z,9.82
2023-01-13T11:58:04.179Z,9.89
2023-01-13T11:59:04.166Z,10.00
2023-01-13T12:00:04.284Z,9.88
2023-01-13T12:01:04.290Z,10.04
2023-01-13T12:02:04.312Z,9.96
2023-01-13T12:03:04.290Z,9.97
2023-01-13T12:04:04.218Z,10.10
2023-01-13T12:05:04.295Z,10.00
2023-01-13T12:06:04.234Z,10.00
2023-01-13T12:07:04.219Z,10.00
2023-01-13T12:08:04.191Z,10.00
2023-01-13T12:09:04.199Z,9.96
2023-01-13T12:10:05.086Z,9.85
2023-01-13T12:11:04.173Z,9.88
2023-01-13T12:12:04.163Z,9.81
2023-01-13T12:13:04.159Z,9.73
2023-01-13T12:14:04.177Z,9.93
2023-01-13T12:15:04.149Z,9.93
2023-01-13T12:16:04.201Z,9.97
2023-01-13T12:17:04.237Z,10.04
2023-01-13T12:18:04.255Z,10.17
2023-01-13T12:19:04.214Z,10.15
2023-01-13T12:20:04.127Z,10.04
2023-01-13T12:21:04.209Z,10.09
2023-01-13T12:22:04.141Z,10.21
2023-01-13T12:23:04.136Z,10.21
2023-01-13T12:24:04.158Z,10.14
2023-01-13T12:25:04.159Z,10.09
2023-01-13T12:26:04.212Z,10.10
2023-01-13T12:27:04.253Z,10.24
2023-01-13T12:28:04.176Z,10.14
2023-01-13T12:29:04.209Z,10.21
2023-01-13T12:30:04.148Z,10.17
2023-01-13T12:31:04.163Z,9.96
2023-01-13T12:32:04.089Z,9.99
2023-01-13T12:33:04.057Z,9.88
2023-01-13T12:34:04.034Z,9.75
2023-01-13T12:35:04.003Z,9.73
2023-01-13T12:36:03.918Z,9.70
2023-01-13T12:37:03.905Z,9.70
2023-01-13T12:38:04.344Z,9.71
2023-01-13T12:39:03.923Z,9.73
2023-01-13T12:40:03.911Z,9.85
2023-01-13T12:41:03.886Z,9.86
2023-01-13T12:42:03.882Z,9.73
2023-01-13T12:43:03.895Z,9.76
2023-01-13T12:44:03.930Z,9.76
2023-01-13T12:45:03.879Z,9.91
2023-01-13T12:46:03.891Z,9.91
2023-01-13T12:47:03.863Z,10.14
2023-01-13T12:48:03.827Z,10.12
2023-01-13T12:49:04.035Z,10.18
2023-01-13T12:50:03.874Z,10.22
2023-01-13T12:51:03.993Z,10.30
2023-01-13T12:52:03.926Z,10.24
2023-01-13T12:53:03.941Z,10.10
2023-01-13T12:54:03.856Z,10.01
2023-01-13T12:55:03.907Z,10.00
2023-01-13T12:56:03.919Z,9.94
2023-01-13T12:57:57.945Z,9.86
2023-01-13T12:58:59.428Z,9.79
2023-01-13T12:59:59.229Z,9.83
2023-01-13T14:16:04.179Z,9.60
2023-01-13T14:17:36.778Z,9.63
2023-01-13T14:19:58.544Z,9.66
2023-01-13T14:23:07.555Z,9.56
2023-01-13T14:27:22.035Z,9.46
2023-01-13T14:28:12.515Z,9.32
2023-01-13T14:29:11.410Z,9.48
2023-01-13T14:32:03.169Z,9.68
2023-01-13T14:33:04.524Z,9.83
2023-01-13T14:34:31.365Z,9.86
2023-01-13T14:35:04.413Z,9.88
2023-01-13T14:36:03.297Z,9.86
2023-01-13T14:37:03.632Z,9.94
2023-01-13T14:38:03.194Z,9.91
2023-01-13T14:39:03.513Z,9.89
2023-01-13T14:40:03.560Z,9.75
2023-01-13T14:41:03.155Z,9.35
2023-01-13T14:42:04.610Z,9.27
2023-01-13T14:43:03.209Z,9.31
2023-01-13T14:44:04.266Z,9.12
2023-01-13T14:45:03.828Z,9.13
2023-01-13T14:46:03.215Z,9.12
2023-01-13T14:47:03.393Z,9.15
2023-01-13T14:48:03.270Z,9.12
2023-01-13T14:49:03.006Z,9.02
2023-01-13T14:50:03.247Z,9.02
2023-01-13T14:51:03.109Z,9.02
2023-01-13T14:52:03.085Z,9.04
2023-01-13T14:53:03.594Z,8.88
2023-01-13T14:54:03.008Z,8.93
2023-01-13T14:55:03.296Z,8.93
2023-01-13T14:56:03.179Z,8.84
2023-01-13T14:57:02.914Z,8.76
2023-01-13T14:58:03.552Z,8.73
2023-01-13T14:59:03.044Z,8.75
2023-01-13T15:00:04.890Z,8.78